createdAt,value
2018-05-07T00:00:47.320Z,5.20
2018-05-07T00:03:15.490Z,4.80
2018-05-07T00:05:42.977Z,4.30
2018-05-07T00:08:10.527Z,5.00
2018-05-07T00:10:37.978Z,4.40
2018-05-07T00:13:05.764Z,5.17
2018-05-07T00:15:33.334Z,5.40
2018-05-07T00:18:00.791Z,5.70
2018-05-07T00:20:28.646Z,5.37
2018-05-07T00:22:56.112Z,5.23
2018-05-07T00:25:23.642Z,5.60
2018-05-07T00:27:51.200Z,5.53
2018-05-07T00:30:18.751Z,5.67
2018-05-07T00:32:46.227Z,5.60
2018-05-07T00:35:13.766Z,6.10
2018-05-07T00:37:41.211Z,5.27
2018-05-07T00:40:08.671Z,5.17
2018-05-07T00:42:36.959Z,5.60
2018-05-07T00:45:04.506Z,6.57
2018-05-07T00:47:31.981Z,5.20
2018-05-07T00:49:59.466Z,5.90
2018-05-07T00:52:27.674Z,5.80
2018-05-07T00:55:07.054Z,5.77
2018-05-07T00:57:34.494Z,5.97
2018-05-07T01:00:02.073Z,6.07
2018-05-07T01:02:29.657Z,5.93
2018-05-07T01:04:57.134Z,6.07
2018-05-07T01:07:24.620Z,6.50
2018-05-07T01:09:52.103Z,6.03
2018-05-07T01:12:19.922Z,5.77
2018-05-07T01:14:49.140Z,6.17
2018-05-07T01:17:18.360Z,6.70
2018-05-07T01:19:47.464Z,6.80
2018-05-07T01:22:16.634Z,6.30
2018-05-07T01:24:45.854Z,5.87
2018-05-07T01:27:15.031Z,6.87
2018-05-07T01:29:44.125Z,6.83
2018-05-07T01:32:13.408Z,7.17
2018-05-07T01:34:42.625Z,6.63
2018-05-07T01:37:11.762Z,6.30
2018-05-07T01:39:40.914Z,6.57
2018-05-07T01:42:10.021Z,6.97
2018-05-07T01:44:39.257Z,6.80
2018-05-07T01:47:08.340Z,6.83
2018-05-07T01:49:38.089Z,7.27
2018-05-07T01:52:07.208Z,7.30
2018-05-07T01:54:36.393Z,7.40
2018-05-07T01:57:05.509Z,7.50
2018-05-07T01:59:34.617Z,7.93
2018-05-07T02:02:03.761Z,7.90
2018-05-07T02:04:32.962Z,7.40
2018-05-07T02:07:02.080Z,7.27
2018-05-07T02:09:31.194Z,8.00
2018-05-07T02:12:00.341Z,6.63
2018-05-07T02:14:29.462Z,6.87
2018-05-07T02:16:58.566Z,7.57
2018-05-07T02:19:27.676Z,6.90
2018-05-07T02:21:56.817Z,7.40
2018-05-07T02:24:25.929Z,7.80
2018-05-07T02:26:55.050Z,7.13
2018-05-07T02:29:24.141Z,7.63
2018-05-07T02:31:53.249Z,6.90
2018-05-07T02:34:22.361Z,7.20
2018-05-07T02:36:51.475Z,7.00
2018-05-07T02:39:20.618Z,7.57
2018-05-07T02:41:49.709Z,7.70
2018-05-07T02:44:18.869Z,7.70
2018-05-07T02:46:48.031Z,7.70
2018-05-07T02:49:17.942Z,8.10
2018-05-07T02:51:47.104Z,7.73
2018-05-07T02:54:17.185Z,7.03
2018-05-07T02:56:46.393Z,7.77
2018-05-07T02:59:15.493Z,7.73
2018-05-07T03:01:44.578Z,8.87
2018-05-07T03:04:13.780Z,8.07
2018-05-07T03:06:42.996Z,9.00
2018-05-07T03:09:12.165Z,7.70
2018-05-07T03:11:41.267Z,7.90
2018-05-07T03:14:10.458Z,9.23
2018-05-07T03:16:39.576Z,8.73
2018-05-07T03:19:08.749Z,8.27
2018-05-07T03:21:37.842Z,7.47
2018-05-07T03:24:07.114Z,7.67
2018-05-07T03:26:36.213Z,7.43
2018-05-07T03:29:05.326Z,8.03
2018-05-07T03:31:35.143Z,8.47
2018-05-07T03:34:04.221Z,8.43
2018-05-07T03:36:33.596Z,8.10
2018-05-07T03:39:02.724Z,8.27
2018-05-07T03:41:31.854Z,10.00
2018-05-07T03:44:00.941Z,7.63
2018-05-07T03:46:30.112Z,8.10
2018-05-07T03:48:59.217Z,9.53
2018-05-07T03:51:28.305Z,8.77
2018-05-07T03:53:57.411Z,8.50
2018-05-07T03:56:26.585Z,8.77
2018-05-07T03:58:55.800Z,9.23
2018-05-07T04:01:24.977Z,8.90
2018-05-07T04:03:54.107Z,9.30
2018-05-07T04:06:23.288Z,8.87
2018-05-07T04:08:52.416Z,9.13
2018-05-07T04:11:21.524Z,10.10
2018-05-07T04:13:50.656Z,9.50
2018-05-07T04:16:25.588Z,9.23
2018-05-07T04:19:00.617Z,9.67
2018-05-07T04:21:29.737Z,9.10
2018-05-07T04:24:03.805Z,9.77
2018-05-07T04:26:32.921Z,9.10
2018-05-07T04:29:02.124Z,10.57
2018-05-07T04:31:31.309Z,10.67
2018-05-07T04:34:00.426Z,9.50
2018-05-07T04:36:30.508Z,9.30
2018-05-07T04:38:59.642Z,9.80
2018-05-07T04:41:28.753Z,8.80
2018-05-07T04:43:57.842Z,10.03
2018-05-07T04:46:26.958Z,9.47
2018-05-07T04:48:56.169Z,9.30
2018-05-07T04:51:25.264Z,8.90
2018-05-07T04:53:54.416Z,9.70
2018-05-07T04:56:23.521Z,9.23
2018-05-07T04:58:52.637Z,10.13
2018-05-07T05:01:21.815Z,8.93
2018-05-07T05:03:50.921Z,8.80
2018-05-07T05:06:20.108Z,8.73
2018-05-07T05:08:49.186Z,8.90
2018-05-07T05:11:18.410Z,9.00
2018-05-07T05:13:47.524Z,8.13
2018-05-07T05:16:16.627Z,9.00
2018-05-07T05:18:45.749Z,9.00
2018-05-07T05:21:15.043Z,8.40
2018-05-07T05:23:44.050Z,10.00
2018-05-07T05:26:12.704Z,8.30
2018-05-07T05:28:40.274Z,9.07
2018-05-07T05:31:07.808Z,9.90
2018-05-07T05:33:35.272Z,8.93
2018-05-07T05:36:02.815Z,9.67
2018-05-07T05:38:30.273Z,8.50
2018-05-07T05:40:57.839Z,9.43
2018-05-07T05:43:25.303Z,8.60
2018-05-07T05:45:52.885Z,8.87
2018-05-07T05:48:21.105Z,9.50
2018-05-07T05:50:48.570Z,9.40
2018-05-07T05:53:16.339Z,9.00
2018-05-07T05:55:43.801Z,9.37
2018-05-07T05:58:11.247Z,9.87
2018-05-07T06:00:38.724Z,8.10
2018-05-07T06:03:06.181Z,8.80
2018-05-07T06:05:33.617Z,8.77
2018-05-07T06:08:01.089Z,8.37
2018-05-07T06:10:28.529Z,8.40
2018-05-07T06:12:55.989Z,8.20
2018-05-07T06:15:23.549Z,9.00
2018-05-07T06:17:51.024Z,8.30
2018-05-07T06:20:18.481Z,9.00
2018-05-07T06:22:46.720Z,8.60
2018-05-07T06:25:14.173Z,8.60
2018-05-07T06:27:41.649Z,7.90
2018-05-07T06:30:09.111Z,8.10
2018-05-07T06:32:36.584Z,8.00
2018-05-07T06:35:04.789Z,8.30
2018-05-07T06:37:32.373Z,7.27
2018-05-07T06:39:59.829Z,8.60
2018-05-07T06:42:27.284Z,7.60
2018-05-07T06:44:54.846Z,8.20
2018-05-07T06:47:22.322Z,7.43
2018-05-07T06:49:49.787Z,7.80
2018-05-07T06:52:17.333Z,8.00
2018-05-07T06:54:44.878Z,6.83
2018-05-07T06:57:12.344Z,7.70
2018-05-07T06:59:40.046Z,6.77
2018-05-07T07:02:08.408Z,7.87
2018-05-07T07:04:36.806Z,7.23
2018-05-07T07:07:04.408Z,6.47
2018-05-07T07:09:32.731Z,7.20
2018-05-07T07:12:01.061Z,6.60
2018-05-07T07:14:28.632Z,6.17
2018-05-07T07:16:56.082Z,6.50
2018-05-07T07:19:23.535Z,6.10
2018-05-07T07:21:51.018Z,6.03
2018-05-07T07:24:18.546Z,5.90
2018-05-07T07:26:47.004Z,6.00
2018-05-07T07:29:14.885Z,5.63
2018-05-07T07:31:43.515Z,5.40
2018-05-07T07:34:11.386Z,6.50
2018-05-07T07:36:40.295Z,5.13
2018-05-07T07:39:08.199Z,6.47
2018-05-07T07:41:37.562Z,5.70
2018-05-07T07:44:06.742Z,5.50
2018-05-07T07:46:35.761Z,5.40
2018-05-07T07:49:03.818Z,5.17
2018-05-07T07:51:31.291Z,5.90
2018-05-07T07:53:59.461Z,6.23
2018-05-07T07:56:27.061Z,5.40
2018-05-07T07:58:54.595Z,5.30
2018-05-07T08:01:25.509Z,5.00
2018-05-07T08:03:52.988Z,5.10
2018-05-07T08:06:21.376Z,4.90
2018-05-07T08:08:48.841Z,6.20
2018-05-07T08:11:16.309Z,5.37
2018-05-07T08:13:44.554Z,5.13
2018-05-07T08:16:12.105Z,5.17
2018-05-07T08:18:39.556Z,5.30
2018-05-07T08:21:07.131Z,5.10
2018-05-07T08:23:34.614Z,5.07
2018-05-07T08:26:02.941Z,6.00
2018-05-07T08:28:30.402Z,5.27
2018-05-07T08:30:58.653Z,5.77
2018-05-07T08:33:26.092Z,5.20
2018-05-07T08:35:53.567Z,5.23
2018-05-07T08:38:21.094Z,5.10
2018-05-07T08:40:49.322Z,4.80
2018-05-07T08:43:16.935Z,4.33
2018-05-07T08:45:44.342Z,4.77
2018-05-07T08:48:15.648Z,5.63
2018-05-07T08:50:43.177Z,5.60
2018-05-07T08:53:11.630Z,4.30
2018-05-07T08:55:39.828Z,4.73
2018-05-07T08:58:08.076Z,4.40
2018-05-07T09:00:35.641Z,3.80
2018-05-07T09:03:03.193Z,4.50
2018-05-07T09:05:30.654Z,4.73
2018-05-07T09:07:58.103Z,4.70
2018-05-07T09:10:25.636Z,4.27
2018-05-07T09:12:53.081Z,3.60
2018-05-07T09:15:20.552Z,4.30
2018-05-07T09:17:48.022Z,4.50
2018-05-07T09:20:15.464Z,4.57
2018-05-07T09:22:43.049Z,4.30
2018-05-07T09:25:12.376Z,4.13
2018-05-07T09:27:39.838Z,3.77
2018-05-07T09:30:08.215Z,3.83
2018-05-07T09:32:35.677Z,3.93
2018-05-07T09:35:03.179Z,4.40
2018-05-07T09:37:30.621Z,4.00
2018-05-07T09:39:58.077Z,3.80
2018-05-07T09:42:25.715Z,3.97
2018-05-07T09:44:53.201Z,3.70
2018-05-07T09:47:20.832Z,4.37
2018-05-07T09:49:49.133Z,4.30
2018-05-07T09:52:16.597Z,4.17
2018-05-07T09:54:44.153Z,4.40
2018-05-07T09:57:11.586Z,4.27
2018-05-07T09:59:39.441Z,3.90
2018-05-07T10:02:06.901Z,3.53
2018-05-07T10:04:34.408Z,4.10
2018-05-07T10:07:01.898Z,4.27
2018-05-07T10:09:29.362Z,4.60
2018-05-07T10:11:56.810Z,3.63
2018-05-07T10:14:24.294Z,3.87
2018-05-07T10:16:51.789Z,3.60
2018-05-07T10:19:19.999Z,3.80
2018-05-07T10:21:47.499Z,3.37
2018-05-07T10:24:15.061Z,3.00
2018-05-07T10:26:42.608Z,2.97
2018-05-07T10:29:10.258Z,3.30
2018-05-07T10:31:37.718Z,3.70
2018-05-07T10:34:05.286Z,2.70
2018-05-07T10:36:32.726Z,3.43
2018-05-07T10:39:00.184Z,2.67
2018-05-07T10:41:27.642Z,2.80
2018-05-07T10:43:55.122Z,2.80
2018-05-07T10:46:22.563Z,2.47
2018-05-07T10:48:49.999Z,2.87
2018-05-07T10:51:17.581Z,2.73
2018-05-07T10:53:45.032Z,2.50
2018-05-07T10:56:12.571Z,3.00
2018-05-07T10:58:40.761Z,3.30
2018-05-07T11:01:08.310Z,2.90
2018-05-07T11:03:35.765Z,3.20
2018-05-07T11:06:03.236Z,3.60
2018-05-07T11:08:30.692Z,2.77
2018-05-07T11:10:58.233Z,3.00
2018-05-07T11:13:25.699Z,2.87
2018-05-07T11:15:54.637Z,3.10
2018-05-07T11:18:22.121Z,3.23
2018-05-07T11:20:50.535Z,3.67
2018-05-07T11:23:19.752Z,3.00
2018-05-07T11:25:47.972Z,3.00
2018-05-07T11:28:15.441Z,3.20
2018-05-07T11:30:42.999Z,2.73
2018-05-07T11:33:10.445Z,3.00
2018-05-07T11:35:38.104Z,2.80
2018-05-07T11:38:06.377Z,2.73
2018-05-07T11:40:34.140Z,3.13
2018-05-07T11:43:01.613Z,2.60
2018-05-07T11:45:29.259Z,3.50
2018-05-07T11:47:56.714Z,2.70
2018-05-07T11:50:24.231Z,3.07
2018-05-07T11:52:52.590Z,3.20
2018-05-07T11:55:20.825Z,2.87
2018-05-07T11:57:48.292Z,3.60
2018-05-07T12:00:15.742Z,3.27
2018-05-07T12:02:44.014Z,2.90
2018-05-07T12:05:13.374Z,2.60
2018-05-07T12:07:40.878Z,2.73
2018-05-07T12:10:08.437Z,2.83
2018-05-07T12:12:35.902Z,2.67
2018-05-07T12:15:03.355Z,2.40
2018-05-07T12:17:30.904Z,2.37
2018-05-07T12:19:59.327Z,2.90
2018-05-07T12:22:26.755Z,2.67
2018-05-07T12:24:54.972Z,2.17
2018-05-07T12:27:22.443Z,2.60
2018-05-07T12:29:49.886Z,2.43
2018-05-07T12:32:17.374Z,2.40
2018-05-07T12:34:44.848Z,2.30
2018-05-07T12:37:13.092Z,2.40
2018-05-07T12:39:40.559Z,2.60
2018-05-07T12:42:08.109Z,2.93
2018-05-07T12:44:35.554Z,2.30
2018-05-07T12:47:03.015Z,2.60
2018-05-07T12:49:31.397Z,2.87
2018-05-07T12:51:58.866Z,2.70
2018-05-07T12:54:27.233Z,2.53
2018-05-07T12:56:54.782Z,2.77
2018-05-07T12:59:23.008Z,2.70
2018-05-07T13:01:51.399Z,2.33
2018-05-07T13:04:18.843Z,2.80
2018-05-07T13:06:47.064Z,2.10
2018-05-07T13:09:14.646Z,2.40
2018-05-07T13:11:42.093Z,2.30
2018-05-07T13:14:09.541Z,2.27
2018-05-07T13:16:36.995Z,2.13
2018-05-07T13:19:04.556Z,2.43
2018-05-07T13:21:31.996Z,2.50
2018-05-07T13:23:59.458Z,2.40
2018-05-07T13:26:28.112Z,2.40
2018-05-07T13:28:55.549Z,2.60
2018-05-07T13:31:23.000Z,2.60
2018-05-07T13:33:50.502Z,2.57
2018-05-07T13:36:17.963Z,2.40
2018-05-07T13:38:47.429Z,2.93
2018-05-07T13:41:14.875Z,2.43
2018-05-07T13:43:42.339Z,2.40
2018-05-07T13:46:09.840Z,2.10
2018-05-07T13:48:38.357Z,2.40
2018-05-07T13:51:06.609Z,1.97
2018-05-07T13:53:34.029Z,2.00
2018-05-07T13:56:01.486Z,1.93
2018-05-07T13:58:28.931Z,2.13
2018-05-07T14:00:56.414Z,2.20
2018-05-07T14:03:23.869Z,2.47
2018-05-07T14:05:51.422Z,2.00
2018-05-07T14:08:18.885Z,2.00
2018-05-07T14:10:46.342Z,2.60
2018-05-07T14:13:14.018Z,1.90
2018-05-07T14:15:42.645Z,2.33
2018-05-07T14:18:10.107Z,2.07
2018-05-07T14:20:37.579Z,2.93
2018-05-07T14:23:05.033Z,2.40
2018-05-07T14:25:32.509Z,2.27
2018-05-07T14:27:59.947Z,2.63
2018-05-07T14:30:28.401Z,2.90
2018-05-07T14:32:55.878Z,2.87
2018-05-07T14:35:23.442Z,2.80
2018-05-07T14:37:50.890Z,3.20
2018-05-07T14:40:18.490Z,2.80
2018-05-07T14:42:46.704Z,2.67
2018-05-07T14:45:14.162Z,2.93
2018-05-07T14:47:42.087Z,3.63
2018-05-07T14:50:11.932Z,2.90
2018-05-07T14:52:40.117Z,3.27
2018-05-07T14:55:08.403Z,3.00
2018-05-07T14:57:35.918Z,3.20
2018-05-07T15:00:04.157Z,3.17
2018-05-07T15:02:31.618Z,3.07
2018-05-07T15:04:59.196Z,3.10
2018-05-07T15:07:27.446Z,2.77
2018-05-07T15:09:54.987Z,2.90
2018-05-07T15:12:22.473Z,2.80
2018-05-07T15:14:50.730Z,3.43
2018-05-07T15:17:18.654Z,2.70
2018-05-07T15:19:46.906Z,3.07
2018-05-07T15:22:15.136Z,2.77
2018-05-07T15:24:47.297Z,3.10
2018-05-07T15:27:14.757Z,3.60
2018-05-07T15:29:42.317Z,3.10
2018-05-07T15:32:09.862Z,2.83
2018-05-07T15:34:38.337Z,3.03
2018-05-07T15:37:05.797Z,2.50
2018-05-07T15:39:33.364Z,3.10
2018-05-07T15:42:01.827Z,3.07
2018-05-07T15:44:29.309Z,2.70
2018-05-07T15:46:56.845Z,2.97
2018-05-07T15:49:25.326Z,2.97
2018-05-07T15:51:52.746Z,2.53
2018-05-07T15:54:20.661Z,2.80
2018-05-07T15:56:50.094Z,3.37
2018-05-07T15:59:21.275Z,2.83
2018-05-07T16:01:53.204Z,2.73
2018-05-07T16:04:22.767Z,3.03
2018-05-07T16:06:52.848Z,3.33
2018-05-07T16:09:20.335Z,3.03
2018-05-07T16:11:48.060Z,2.93
2018-05-07T16:14:15.504Z,2.40
2018-05-07T16:16:43.053Z,2.70
2018-05-07T16:19:12.555Z,3.20
2018-05-07T16:21:40.279Z,2.97
2018-05-07T16:24:08.535Z,2.60
2018-05-07T16:26:36.176Z,2.70
2018-05-07T16:29:03.569Z,3.13
2018-05-07T16:31:31.037Z,3.37
2018-05-07T16:33:58.565Z,2.83
2018-05-07T16:36:26.022Z,2.83
2018-05-07T16:38:53.505Z,2.97
2018-05-07T16:41:20.953Z,2.67
2018-05-07T16:43:48.413Z,2.80
2018-05-07T16:46:15.875Z,3.13
2018-05-07T16:48:43.323Z,2.70
2018-05-07T16:51:10.781Z,3.37
2018-05-07T16:53:38.336Z,3.17
2018-05-07T16:56:05.789Z,2.80
2018-05-07T16:58:33.303Z,2.93
2018-05-07T17:01:00.822Z,2.67
2018-05-07T17:03:29.566Z,2.80
2018-05-07T17:05:57.032Z,3.03
2018-05-07T17:08:24.681Z,3.20
2018-05-07T17:10:52.038Z,3.00
2018-05-07T17:13:19.502Z,2.90
2018-05-07T17:15:47.053Z,2.80
2018-05-07T17:18:14.650Z,2.87
2018-05-07T17:20:44.149Z,2.80
2018-05-07T17:23:12.356Z,2.70
2018-05-07T17:25:40.151Z,2.43
2018-05-07T17:28:07.615Z,2.50
2018-05-07T17:30:35.201Z,2.77
2018-05-07T17:33:03.444Z,2.80
2018-05-07T17:35:31.812Z,3.40
2018-05-07T17:37:59.452Z,2.53
2018-05-07T17:40:27.976Z,2.60
2018-05-07T17:42:56.345Z,2.73
2018-05-07T17:45:37.739Z,2.63
2018-05-07T17:48:18.275Z,2.73
2018-05-07T17:50:47.750Z,2.70
2018-05-07T17:53:15.237Z,3.10
2018-05-07T17:55:44.749Z,3.03
2018-05-07T17:58:12.174Z,3.13
2018-05-07T18:00:39.636Z,2.60
2018-05-07T18:03:07.073Z,2.70
2018-05-07T18:05:38.102Z,2.70
2018-05-07T18:08:06.472Z,2.90
2018-05-07T18:10:33.964Z,3.17
2018-05-07T18:13:02.175Z,2.60
2018-05-07T18:15:32.751Z,2.80
2018-05-07T18:18:00.240Z,2.50
2018-05-07T18:20:27.690Z,3.20
2018-05-07T18:22:56.035Z,2.67
2018-05-07T18:25:24.865Z,2.63
2018-05-07T18:27:53.288Z,2.80
2018-05-07T18:30:20.744Z,3.17
2018-05-07T18:32:48.196Z,2.50
2018-05-07T18:35:16.418Z,2.87
2018-05-07T18:37:43.864Z,3.00
2018-05-07T18:40:11.306Z,3.27
2018-05-07T18:42:39.091Z,2.63
2018-05-07T18:45:06.533Z,3.13
2018-05-07T18:47:34.020Z,2.90
2018-05-07T18:50:01.565Z,3.20
2018-05-07T18:52:29.006Z,2.93
2018-05-07T18:54:56.487Z,3.30
2018-05-07T18:57:26.069Z,2.97
2018-05-07T18:59:56.474Z,2.77
2018-05-07T19:02:23.938Z,3.10
2018-05-07T19:04:52.404Z,2.93
2018-05-07T19:07:19.867Z,3.20
2018-05-07T19:09:47.326Z,3.63
2018-05-07T19:12:14.799Z,3.00
2018-05-07T19:14:42.258Z,2.90
2018-05-07T19:17:09.837Z,3.10
2018-05-07T19:19:37.312Z,3.13
2018-05-07T19:22:05.545Z,3.23
2018-05-07T19:24:33.014Z,2.80
2018-05-07T19:27:01.431Z,3.20
2018-05-07T19:29:28.959Z,2.97
2018-05-07T19:31:56.500Z,2.83
2018-05-07T19:34:23.987Z,3.10
2018-05-07T19:36:52.237Z,3.53
2018-05-07T19:39:19.792Z,3.23
2018-05-07T19:41:47.230Z,3.63
2018-05-07T19:44:14.689Z,3.10
2018-05-07T19:46:42.250Z,3.87
2018-05-07T19:49:09.713Z,2.83
2018-05-07T19:51:37.390Z,3.20
2018-05-07T19:54:05.857Z,3.70
2018-05-07T19:56:33.310Z,3.12
2018-05-07T19:59:01.886Z,3.30
2018-05-07T20:01:30.407Z,3.30
2018-05-07T20:03:58.733Z,4.00
2018-05-07T20:06:30.882Z,4.03
2018-05-07T20:08:58.360Z,3.30
2018-05-07T20:11:26.203Z,3.50
2018-05-07T20:13:53.772Z,3.57
2018-05-07T20:16:21.481Z,3.50
2018-05-07T20:18:49.015Z,3.53
2018-05-07T20:21:17.352Z,5.67
2018-05-07T20:23:44.946Z,3.57
2018-05-07T20:26:14.354Z,3.97
2018-05-07T20:28:42.841Z,3.20
2018-05-07T20:31:11.180Z,3.70
2018-05-07T20:33:38.852Z,4.10
2018-05-07T20:36:06.286Z,2.90
2018-05-07T20:38:33.860Z,3.47
2018-05-07T20:41:02.631Z,3.30
2018-05-07T20:43:30.294Z,3.63
2018-05-07T20:45:57.951Z,3.73
2018-05-07T20:48:25.594Z,3.87
2018-05-07T20:50:58.092Z,3.63
2018-05-07T20:53:29.145Z,3.80
2018-05-07T20:55:56.768Z,4.03
2018-05-07T20:58:24.442Z,3.80
2018-05-07T21:00:52.128Z,4.17
2018-05-07T21:03:20.423Z,3.50
2018-05-07T21:05:49.059Z,3.50
2018-05-07T21:08:16.770Z,3.20
2018-05-07T21:10:44.345Z,3.70
2018-05-07T21:13:11.894Z,3.50
2018-05-07T21:15:39.310Z,3.53
2018-05-07T21:18:07.090Z,3.70
2018-05-07T21:20:35.526Z,3.37
2018-05-07T21:23:02.978Z,3.30
2018-05-07T21:25:30.479Z,3.30
2018-05-07T21:27:58.966Z,3.37
2018-05-07T21:30:26.582Z,3.73
2018-05-07T21:32:54.027Z,3.60
2018-05-07T21:35:22.317Z,3.80
2018-05-07T21:37:49.752Z,3.70
2018-05-07T21:40:22.581Z,3.70
2018-05-07T21:42:50.071Z,4.00
2018-05-07T21:45:18.333Z,3.47
2018-05-07T21:47:46.657Z,3.70
2018-05-07T21:50:14.147Z,3.60
2018-05-07T21:52:41.722Z,3.30
2018-05-07T21:55:09.259Z,3.70
2018-05-07T21:57:36.877Z,3.43
2018-05-07T22:00:04.526Z,3.13
2018-05-07T22:02:32.766Z,4.20
2018-05-07T22:05:00.359Z,3.33
2018-05-07T22:07:29.783Z,3.13
2018-05-07T22:09:57.293Z,3.83
2018-05-07T22:12:24.875Z,3.30
2018-05-07T22:14:52.242Z,3.73
2018-05-07T22:17:20.661Z,3.70
2018-05-07T22:19:48.113Z,3.40
2018-05-07T22:22:15.569Z,3.33
2018-05-07T22:24:43.014Z,3.53
2018-05-07T22:27:12.579Z,3.80
2018-05-07T22:29:41.161Z,3.40
2018-05-07T22:32:09.471Z,3.57
2018-05-07T22:34:36.849Z,3.90
2018-05-07T22:37:05.008Z,3.90
2018-05-07T22:39:32.462Z,3.90
2018-05-07T22:41:59.962Z,3.33
2018-05-07T22:44:28.224Z,3.60
2018-05-07T22:47:00.238Z,3.57
2018-05-07T22:49:30.883Z,4.27
2018-05-07T22:51:58.301Z,3.90
2018-05-07T22:54:25.767Z,3.83
2018-05-07T22:56:54.294Z,4.13
2018-05-07T22:59:23.774Z,4.10
2018-05-07T23:01:56.199Z,3.90
2018-05-07T23:04:25.354Z,3.80
2018-05-07T23:06:54.559Z,4.10
2018-05-07T23:09:23.656Z,4.30
2018-05-07T23:11:53.742Z,3.90
2018-05-07T23:14:22.854Z,3.90
2018-05-07T23:16:51.965Z,4.70
2018-05-07T23:19:21.065Z,3.90
2018-05-07T23:21:50.248Z,4.10
2018-05-07T23:24:19.432Z,4.50
2018-05-07T23:26:48.521Z,4.23
2018-05-07T23:29:17.625Z,4.23
2018-05-07T23:31:46.739Z,3.93
2018-05-07T23:34:16.131Z,3.90
2018-05-07T23:36:46.254Z,4.07
2018-05-07T23:39:15.359Z,3.70
2018-05-07T23:41:44.467Z,4.33
2018-05-07T23:44:14.878Z,3.53
2018-05-07T23:46:44.959Z,4.87
2018-05-07T23:49:14.132Z,4.10
2018-05-07T23:51:43.609Z,4.63
2018-05-07T23:54:12.783Z,4.60
2018-05-07T23:56:42.884Z,4.50
2018-05-07T23:59:11.983Z,4.30
